Terminal Aerodrome Forecast
Issued by NWS

Home | Current Version | Previous Version | Text Only | Print | Product List | Glossary On
Versions: 1 2 3 4 5 6 7 8 9 10 11 12 13 14 15 16 17 18 19 20 21 22 23 24 25 26 27 28 29 30 31 32 33 34 35 36 37 38 39 40 41 42 43 44 45 46 47 48
524
FTUS44 KFWD 150259 AAA
TAFAFW
TAF AMD
KAFW 150259Z 1503/1524 06006KT P6SM SCT300
     FM151100 13007KT 4SM BR BKN011 OVC030
      TEMPO 1512/1515 VRB04KT 1SM -DZ BR BKN006
     FM151500 19008KT 5SM BR BKN025
     FM151630 22010KT P6SM FEW045 SCT300
     FM152200 35008KT P6SM BKN040=

USA.gov is the U.S. government's official web portal to all federal, state and local government web resources and services.